sensor_id;sensor_type;location;lat;lon;timestamp;pressure;altitude;pressure_sealevel;temperature;humidity
58967;BME280;44744;51.894;5.080;2023-01-13T00:00:31;100443.16;;;8.62;82.68
58967;BME280;44744;51.894;5.080;2023-01-13T00:01:31;100440.07;;;8.61;82.67
58967;BME280;44744;51.894;5.080;2023-01-13T00:02:31;100442.58;;;8.60;82.77
58967;BME280;44744;51.894;5.080;2023-01-13T00:03:32;100442.62;;;8.59;82.96
58967;BME280;44744;51.894;5.080;2023-01-13T00:04:34;100442.10;;;8.59;83.10
58967;BME280;44744;51.894;5.080;2023-01-13T00:05:35;100443.34;;;8.59;83.16
58967;BME280;44744;51.894;5.080;2023-01-13T00:06:36;100442.33;;;8.58;83.22
58967;BME280;44744;51.894;5.080;2023-01-13T00:07:36;100443.34;;;8.59;83.28
58967;BME280;44744;51.894;5.080;2023-01-13T00:08:36;100441.94;;;8.58;83.22
58967;BME280;44744;51.894;5.080;2023-01-13T00:09:37;100440.73;;;8.58;83.37
58967;BME280;44744;51.894;5.080;2023-01-13T00:10:37;100438.96;;;8.58;83.37
58967;BME280;44744;51.894;5.080;2023-01-13T00:11:40;100437.23;;;8.58;83.57
58967;BME280;44744;51.894;5.080;2023-01-13T00:12:40;100433.34;;;8.58;83.46
58967;BME280;44744;51.894;5.080;2023-01-13T00:13:40;100435.29;;;8.58;83.52
58967;BME280;44744;51.894;5.080;2023-01-13T00:14:41;100435.44;;;8.58;83.59
58967;BME280;44744;51.894;5.080;2023-01-13T00:15:41;100439.83;;;8.59;83.73
58967;BME280;44744;51.894;5.080;2023-01-13T00:16:41;100433.48;;;8.58;83.66
58967;BME280;44744;51.894;5.080;2023-01-13T00:17:41;100428.77;;;8.58;83.49
58967;BME280;44744;51.894;5.080;2023-01-13T00:18:42;100427.77;;;8.57;83.52
58967;BME280;44744;51.894;5.080;2023-01-13T00:19:42;100426.23;;;8.56;83.55
58967;BME280;44744;51.894;5.080;2023-01-13T00:20:42;100430.52;;;8.54;83.56
58967;BME280;44744;51.894;5.080;2023-01-13T00:21:43;100429.00;;;8.53;83.58
58967;BME280;44744;51.894;5.080;2023-01-13T00:22:43;100430.12;;;8.52;83.54
58967;BME280;44744;51.894;5.080;2023-01-13T00:23:43;100434.93;;;8.51;83.49
58967;BME280;44744;51.894;5.080;2023-01-13T00:24:43;100434.98;;;8.50;83.40
58967;BME280;44744;51.894;5.080;2023-01-13T00:25:43;100440.34;;;8.48;83.39
58967;BME280;44744;51.894;5.080;2023-01-13T00:26:43;100444.83;;;8.47;83.39
58967;BME280;44744;51.894;5.080;2023-01-13T00:27:45;100444.55;;;8.46;83.28
58967;BME280;44744;51.894;5.080;2023-01-13T00:28:45;100441.25;;;8.45;83.12
58967;BME280;44744;51.894;5.080;2023-01-13T00:29:45;100442.36;;;8.43;83.21
58967;BME280;44744;51.894;5.080;2023-01-13T00:30:45;100442.67;;;8.41;83.21
58967;BME280;44744;51.894;5.080;2023-01-13T00:31:47;100446.41;;;8.40;83.40
58967;BME280;44744;51.894;5.080;2023-01-13T00:32:50;100448.69;;;8.40;83.42
58967;BME280;44744;51.894;5.080;2023-01-13T00:33:50;100448.70;;;8.40;83.34
58967;BME280;44744;51.894;5.080;2023-01-13T00:34:50;100457.52;;;8.40;83.36
58967;BME280;44744;51.894;5.080;2023-01-13T00:35:57;100453.48;;;8.39;83.38
58967;BME280;44744;51.894;5.080;2023-01-13T00:36:57;100454.23;;;8.38;83.39
58967;BME280;44744;51.894;5.080;2023-01-13T00:37:57;100453.00;;;8.38;83.48
58967;BME280;44744;51.894;5.080;2023-01-13T00:38:57;100459.32;;;8.39;83.46
58967;BME280;44744;51.894;5.080;2023-01-13T00:39:58;100459.11;;;8.39;83.26
58967;BME280;44744;51.894;5.080;2023-01-13T00:41:08;100463.86;;;8.40;82.86
58967;BME280;44744;51.894;5.080;2023-01-13T00:42:08;100458.77;;;8.39;82.86
58967;BME280;44744;51.894;5.080;2023-01-13T00:43:08;100454.75;;;8.38;83.04
58967;BME280;44744;51.894;5.080;2023-01-13T00:44:08;100455.51;;;8.38;83.12
58967;BME280;44744;51.894;5.080;2023-01-13T00:45:08;100451.96;;;8.38;83.32
58967;BME280;44744;51.894;5.080;2023-01-13T00:46:10;100450.71;;;8.38;83.22
58967;BME280;44744;51.894;5.080;2023-01-13T00:47:10;100452.45;;;8.39;83.27
58967;BME280;44744;51.894;5.080;2023-01-13T00:48:10;100448.02;;;8.39;83.27
58967;BME280;44744;51.894;5.080;2023-01-13T00:49:11;100442.43;;;8.38;83.38
58967;BME280;44744;51.894;5.080;2023-01-13T00:50:11;100444.69;;;8.39;83.37
58967;BME280;44744;51.894;5.080;2023-01-13T00:51:12;100444.33;;;8.39;83.26
58967;BME280;44744;51.894;5.080;2023-01-13T00:52:13;100440.81;;;8.39;83.28
58967;BME280;44744;51.894;5.080;2023-01-13T00:53:13;100445.58;;;8.39;83.18
58967;BME280;44744;51.894;5.080;2023-01-13T00:54:13;100445.40;;;8.39;83.00
58967;BME280;44744;51.894;5.080;2023-01-13T00:55:13;100443.33;;;8.38;83.11
58967;BME280;44744;51.894;5.080;2023-01-13T00:56:18;100443.73;;;8.37;83.04
58967;BME280;44744;51.894;5.080;2023-01-13T00:57:18;100438.43;;;8.37;83.03
58967;BME280;44744;51.894;5.080;2023-01-13T00:58:18;100440.42;;;8.36;82.90
58967;BME280;44744;51.894;5.080;2023-01-13T00:59:18;100439.05;;;8.36;83.04
58967;BME280;44744;51.894;5.080;2023-01-13T01:00:19;100443.45;;;8.35;82.95
58967;BME280;44744;51.894;5.080;2023-01-13T01:01:20;100434.16;;;8.35;83.11
58967;BME280;44744;51.894;5.080;2023-01-13T01:02:21;100432.61;;;8.34;83.26
58967;BME280;44744;51.894;5.080;2023-01-13T01:03:21;100432.77;;;8.34;83.23
58967;BME280;44744;51.894;5.080;2023-01-13T01:04:21;100433.98;;;8.35;83.18
58967;BME280;44744;51.894;5.080;2023-01-13T01:05:21;100430.14;;;8.34;83.24
58967;BME280;44744;51.894;5.080;2023-01-13T01:06:23;100430.98;;;8.35;83.06
58967;BME280;44744;51.894;5.080;2023-01-13T01:07:24;100429.79;;;8.34;83.07
58967;BME280;44744;51.894;5.080;2023-01-13T01:08:24;100429.99;;;8.34;83.25
58967;BME280;44744;51.894;5.080;2023-01-13T01:09:24;100430.17;;;8.33;83.30
58967;BME280;44744;51.894;5.080;2023-01-13T01:10:24;100430.85;;;8.34;83.20
58967;BME280;44744;51.894;5.080;2023-01-13T01:11:26;100432.61;;;8.34;83.31
58967;BME280;44744;51.894;5.080;2023-01-13T01:12:27;100434.89;;;8.34;83.32
58967;BME280;44744;51.894;5.080;2023-01-13T01:13:27;100434.52;;;8.34;83.35
58967;BME280;44744;51.894;5.080;2023-01-13T01:14:27;100434.02;;;8.34;83.41
58967;BME280;44744;51.894;5.080;2023-01-13T01:15:27;100429.45;;;8.34;83.40
58967;BME280;44744;51.894;5.080;2023-01-13T01:16:28;100427.08;;;8.32;83.40
58967;BME280;44744;51.894;5.080;2023-01-13T01:17:29;100425.64;;;8.33;83.42
58967;BME280;44744;51.894;5.080;2023-01-13T01:18:29;100427.23;;;8.32;83.25
58967;BME280;44744;51.894;5.080;2023-01-13T01:19:29;100425.05;;;8.30;83.37
58967;BME280;44744;51.894;5.080;2023-01-13T01:20:29;100423.66;;;8.30;83.22
58967;BME280;44744;51.894;5.080;2023-01-13T01:21:30;100424.41;;;8.29;83.16
58967;BME280;44744;51.894;5.080;2023-01-13T01:22:30;100424.65;;;8.28;83.13
58967;BME280;44744;51.894;5.080;2023-01-13T01:23:30;100426.09;;;8.27;83.11
58967;BME280;44744;51.894;5.080;2023-01-13T01:24:31;100424.06;;;8.26;82.88
58967;BME280;44744;51.894;5.080;2023-01-13T01:25:31;100424.27;;;8.25;82.94
58967;BME280;44744;51.894;5.080;2023-01-13T01:26:31;100422.41;;;8.24;82.93
58967;BME280;44744;51.894;5.080;2023-01-13T01:27:31;100419.29;;;8.23;82.71
58967;BME280;44744;51.894;5.080;2023-01-13T01:28:32;100416.36;;;8.21;82.65
58967;BME280;44744;51.894;5.080;2023-01-13T01:29:32;100413.09;;;8.19;82.84
58967;BME280;44744;51.894;5.080;2023-01-13T01:30:33;100416.50;;;8.18;82.78
58967;BME280;44744;51.894;5.080;2023-01-13T01:31:33;100415.69;;;8.17;82.61
58967;BME280;44744;51.894;5.080;2023-01-13T01:32:33;100417.54;;;8.15;82.37
58967;BME280;44744;51.894;5.080;2023-01-13T01:33:33;100418.33;;;8.14;82.46
58967;BME280;44744;51.894;5.080;2023-01-13T01:34:33;100416.23;;;8.13;82.53
58967;BME280;44744;51.894;5.080;2023-01-13T01:35:37;100412.73;;;8.13;82.54
58967;BME280;44744;51.894;5.080;2023-01-13T01:36:37;100414.48;;;8.13;82.43
58967;BME280;44744;51.894;5.080;2023-01-13T01:37:37;100416.63;;;8.12;82.52
58967;BME280;44744;51.894;5.080;2023-01-13T01:38:38;100412.33;;;8.11;82.62
58967;BME280;44744;51.894;5.080;2023-01-13T01:39:38;100417.05;;;8.11;82.70
58967;BME280;44744;51.894;5.080;2023-01-13T01:40:38;100416.52;;;8.11;82.76
58967;BME280;44744;51.894;5.080;2023-01-13T01:41:38;100418.44;;;8.11;82.82
58967;BME280;44744;51.894;5.080;2023-01-13T01:42:38;100421.59;;;8.12;82.68
58967;BME280;44744;51.894;5.080;2023-01-13T01:43:43;100423.66;;;8.13;82.61
58967;BME280;44744;51.894;5.080;2023-01-13T01:44:48;100421.91;;;8.13;82.55
58967;BME280;44744;51.894;5.080;2023-01-13T01:45:48;100419.09;;;8.13;82.49
58967;BME280;44744;51.894;5.080;2023-01-13T01:46:49;100425.96;;;8.13;82.54
58967;BME280;44744;51.894;5.080;2023-01-13T01:47:51;100424.33;;;8.13;82.45
58967;BME280;44744;51.894;5.080;2023-01-13T01:48:53;100426.65;;;8.13;82.25
58967;BME280;44744;51.894;5.080;2023-01-13T01:49:54;100427.58;;;8.12;82.42
58967;BME280;44744;51.894;5.080;2023-01-13T01:50:55;100430.59;;;8.12;82.38
58967;BME280;44744;51.894;5.080;2023-01-13T01:52:05;100430.95;;;8.11;82.19
58967;BME280;44744;51.894;5.080;2023-01-13T01:53:09;100436.10;;;8.11;81.77
58967;BME280;44744;51.894;5.080;2023-01-13T01:54:14;100428.92;;;8.10;81.66
58967;BME280;44744;51.894;5.080;2023-01-13T01:55:20;100435.34;;;8.08;81.76
58967;BME280;44744;51.894;5.080;2023-01-13T01:56:21;100427.10;;;8.08;81.75
58967;BME280;44744;51.894;5.080;2023-01-13T01:58:51;100419.96;;;8.06;81.85
58967;BME280;44744;51.894;5.080;2023-01-13T01:59:52;100415.80;;;8.05;81.83
58967;BME280;44744;51.894;5.080;2023-01-13T02:00:53;100410.73;;;8.04;81.82
58967;BME280;44744;51.894;5.080;2023-01-13T02:01:53;100409.73;;;8.03;81.73
58967;BME280;44744;51.894;5.080;2023-01-13T02:02:53;100415.77;;;8.02;81.73
58967;BME280;44744;51.894;5.080;2023-01-13T02:03:58;100417.79;;;8.00;81.31
58967;BME280;44744;51.894;5.080;2023-01-13T02:05:01;100415.72;;;7.99;81.05
58967;BME280;44744;51.894;5.080;2023-01-13T02:06:01;100414.37;;;7.98;80.96
58967;BME280;44744;51.894;5.080;2023-01-13T02:07:02;100419.38;;;7.96;81.02
58967;BME280;44744;51.894;5.080;2023-01-13T02:08:02;100415.90;;;7.96;81.12
58967;BME280;44744;51.894;5.080;2023-01-13T02:09:02;100419.80;;;7.95;81.24
58967;BME280;44744;51.894;5.080;2023-01-13T02:10:04;100414.53;;;7.95;81.14
58967;BME280;44744;51.894;5.080;2023-01-13T02:11:05;100415.23;;;7.95;80.98
58967;BME280;44744;51.894;5.080;2023-01-13T02:12:08;100420.67;;;7.95;80.74
58967;BME280;44744;51.894;5.080;2023-01-13T02:13:09;100425.61;;;7.95;80.85
58967;BME280;44744;51.894;5.080;2023-01-13T02:14:10;100428.80;;;7.95;80.87
58967;BME280;44744;51.894;5.080;2023-01-13T02:15:12;100429.88;;;7.95;80.71
58967;BME280;44744;51.894;5.080;2023-01-13T02:16:16;100423.20;;;7.94;80.68
58967;BME280;44744;51.894;5.080;2023-01-13T02:21:43;100421.27;;;7.94;80.31
58967;BME280;44744;51.894;5.080;2023-01-13T02:29:06;100395.81;;;7.89;79.49
58967;BME280;44744;51.894;5.080;2023-01-13T02:31:13;100383.19;;;7.88;79.63
58967;BME280;44744;51.894;5.080;2023-01-13T02:32:18;100379.69;;;7.88;79.74
58967;BME280;44744;51.894;5.080;2023-01-13T02:34:32;100373.60;;;7.86;79.54
58967;BME280;44744;51.894;5.080;2023-01-13T02:37:47;100379.58;;;7.86;79.40
58967;BME280;44744;51.894;5.080;2023-01-13T02:38:53;100382.02;;;7.86;79.14
58967;BME280;44744;51.894;5.080;2023-01-13T02:41:06;100376.52;;;7.88;79.34
58967;BME280;44744;51.894;5.080;2023-01-13T02:42:13;100374.19;;;7.89;79.26
58967;BME280;44744;51.894;5.080;2023-01-13T02:43:30;100370.63;;;7.90;79.04
58967;BME280;44744;51.894;5.080;2023-01-13T02:44:33;100367.80;;;7.90;78.89
58967;BME280;44744;51.894;5.080;2023-01-13T02:45:36;100363.20;;;7.90;78.92
58967;BME280;44744;51.894;5.080;2023-01-13T02:46:42;100363.48;;;7.91;78.25
58967;BME280;44744;51.894;5.080;2023-01-13T02:47:43;100365.95;;;7.91;78.44
58967;BME280;44744;51.894;5.080;2023-01-13T02:48:46;100363.14;;;7.91;78.51
58967;BME280;44744;51.894;5.080;2023-01-13T02:49:51;100363.42;;;7.92;78.57
58967;BME280;44744;51.894;5.080;2023-01-13T02:51:01;100361.83;;;7.93;78.61
58967;BME280;44744;51.894;5.080;2023-01-13T02:52:13;100355.45;;;7.94;77.89
58967;BME280;44744;51.894;5.080;2023-01-13T02:53:26;100349.67;;;7.93;78.05
58967;BME280;44744;51.894;5.080;2023-01-13T02:54:28;100353.04;;;7.93;78.29
58967;BME280;44744;51.894;5.080;2023-01-13T02:56:29;100357.25;;;7.93;78.09
58967;BME280;44744;51.894;5.080;2023-01-13T02:57:30;100359.39;;;7.92;77.97
58967;BME280;44744;51.894;5.080;2023-01-13T02:58:33;100363.63;;;7.92;77.91
58967;BME280;44744;51.894;5.080;2023-01-13T02:59:35;100366.66;;;7.91;77.88
58967;BME280;44744;51.894;5.080;2023-01-13T03:00:36;100364.98;;;7.90;78.10
58967;BME280;44744;51.894;5.080;2023-01-13T03:01:36;100366.73;;;7.90;77.93
58967;BME280;44744;51.894;5.080;2023-01-13T03:02:37;100363.43;;;7.89;77.98
58967;BME280;44744;51.894;5.080;2023-01-13T03:03:37;100361.16;;;7.89;78.29
58967;BME280;44744;51.894;5.080;2023-01-13T03:04:44;100361.73;;;7.88;78.27
58967;BME280;44744;51.894;5.080;2023-01-13T03:05:45;100361.39;;;7.87;78.26
58967;BME280;44744;51.894;5.080;2023-01-13T03:09:05;100361.66;;;7.89;78.44
58967;BME280;44744;51.894;5.080;2023-01-13T03:10:18;100368.05;;;7.91;78.36
58967;BME280;44744;51.894;5.080;2023-01-13T03:11:21;100369.03;;;7.93;78.17
58967;BME280;44744;51.894;5.080;2023-01-13T03:14:40;100366.97;;;7.96;78.66
58967;BME280;44744;51.894;5.080;2023-01-13T03:15:47;100365.45;;;7.98;78.65
58967;BME280;44744;51.894;5.080;2023-01-13T03:17:10;100374.88;;;7.99;78.53
58967;BME280;44744;51.894;5.080;2023-01-13T03:20:50;100378.73;;;8.03;78.80
58967;BME280;44744;51.894;5.080;2023-01-13T03:23:31;100374.47;;;8.03;78.90
58967;BME280;44744;51.894;5.080;2023-01-13T03:24:36;100367.41;;;8.04;78.98
58967;BME280;44744;51.894;5.080;2023-01-13T03:25:41;100368.69;;;8.03;78.97
58967;BME280;44744;51.894;5.080;2023-01-13T03:26:47;100369.41;;;8.02;78.96
58967;BME280;44744;51.894;5.080;2023-01-13T03:27:49;100358.00;;;8.02;78.72
58967;BME280;44744;51.894;5.080;2023-01-13T03:28:53;100368.62;;;8.01;78.84
58967;BME280;44744;51.894;5.080;2023-01-13T03:31:16;100366.48;;;7.98;78.98
58967;BME280;44744;51.894;5.080;2023-01-13T03:32:22;100365.71;;;7.96;79.08
58967;BME280;44744;51.894;5.080;2023-01-13T03:33:25;100364.20;;;7.94;79.15
58967;BME280;44744;51.894;5.080;2023-01-13T03:34:32;100366.19;;;7.94;79.25
58967;BME280;44744;51.894;5.080;2023-01-13T03:35:41;100368.67;;;7.93;79.36
58967;BME280;44744;51.894;5.080;2023-01-13T03:36:43;100365.92;;;7.92;79.26
58967;BME280;44744;51.894;5.080;2023-01-13T03:37:46;100368.28;;;7.91;79.30
58967;BME280;44744;51.894;5.080;2023-01-13T03:38:50;100369.73;;;7.90;79.39
58967;BME280;44744;51.894;5.080;2023-01-13T03:39:52;100367.84;;;7.89;79.43
58967;BME280;44744;51.894;5.080;2023-01-13T03:40:55;100373.35;;;7.88;79.34
58967;BME280;44744;51.894;5.080;2023-01-13T03:41:58;100368.41;;;7.88;79.34
58967;BME280;44744;51.894;5.080;2023-01-13T03:43:08;100363.20;;;7.86;79.44
58967;BME280;44744;51.894;5.080;2023-01-13T03:44:16;100365.17;;;7.85;79.54
58967;BME280;44744;51.894;5.080;2023-01-13T03:45:18;100368.32;;;7.86;79.52
58967;BME280;44744;51.894;5.080;2023-01-13T03:46:21;100370.96;;;7.86;79.35
58967;BME280;44744;51.894;5.080;2023-01-13T03:47:28;100371.67;;;7.86;79.40
58967;BME280;44744;51.894;5.080;2023-01-13T03:48:30;100369.60;;;7.85;79.39
58967;BME280;44744;51.894;5.080;2023-01-13T03:49:36;100372.05;;;7.85;79.15
58967;BME280;44744;51.894;5.080;2023-01-13T03:50:44;100365.73;;;7.85;79.15
58967;BME280;44744;51.894;5.080;2023-01-13T03:51:46;100369.48;;;7.84;79.17
58967;BME280;44744;51.894;5.080;2023-01-13T03:52:49;100368.59;;;7.84;79.21
58967;BME280;44744;51.894;5.080;2023-01-13T03:53:53;100364.59;;;7.83;79.25
58967;BME280;44744;51.894;5.080;2023-01-13T03:55:05;100366.20;;;7.83;79.48
58967;BME280;44744;51.894;5.080;2023-01-13T03:56:06;100369.17;;;7.83;79.33
58967;BME280;44744;51.894;5.080;2023-01-13T03:57:09;100369.38;;;7.82;79.20
58967;BME280;44744;51.894;5.080;2023-01-13T03:58:12;100367.70;;;7.81;79.10
58967;BME280;44744;51.894;5.080;2023-01-13T03:59:15;100367.58;;;7.80;79.21
58967;BME280;44744;51.894;5.080;2023-01-13T04:00:18;100371.34;;;7.79;78.92
58967;BME280;44744;51.894;5.080;2023-01-13T04:01:23;100371.23;;;7.77;78.87
58967;BME280;44744;51.894;5.080;2023-01-13T04:02:31;100378.50;;;7.76;78.83
58967;BME280;44744;51.894;5.080;2023-01-13T04:03:38;100371.55;;;7.75;78.77
58967;BME280;44744;51.894;5.080;2023-01-13T04:04:51;100379.17;;;7.73;78.58
58967;BME280;44744;51.894;5.080;2023-01-13T04:05:56;100383.64;;;7.72;78.17
58967;BME280;44744;51.894;5.080;2023-01-13T04:08:23;100381.02;;;7.68;77.99
58967;BME280;44744;51.894;5.080;2023-01-13T04:11:06;100383.70;;;7.64;77.29
58967;BME280;44744;51.894;5.080;2023-01-13T04:13:09;100386.48;;;7.61;77.10
58967;BME280;44744;51.894;5.080;2023-01-13T04:14:11;100387.02;;;7.61;76.63
58967;BME280;44744;51.894;5.080;2023-01-13T04:15:13;100388.12;;;7.60;76.68
58967;BME280;44744;51.894;5.080;2023-01-13T04:16:13;100386.39;;;7.59;76.75
58967;BME280;44744;51.894;5.080;2023-01-13T04:17:14;100385.70;;;7.59;76.84
58967;BME280;44744;51.894;5.080;2023-01-13T04:18:20;100388.05;;;7.58;77.00
58967;BME280;44744;51.894;5.080;2023-01-13T04:19:20;100390.36;;;7.58;76.85
58967;BME280;44744;51.894;5.080;2023-01-13T04:20:20;100390.19;;;7.58;76.70
58967;BME280;44744;51.894;5.080;2023-01-13T04:21:20;100392.65;;;7.57;76.78
58967;BME280;44744;51.894;5.080;2023-01-13T04:22:21;100396.19;;;7.57;76.60
58967;BME280;44744;51.894;5.080;2023-01-13T04:23:21;100394.61;;;7.57;76.35
58967;BME280;44744;51.894;5.080;2023-01-13T04:24:21;100394.25;;;7.57;76.35
58967;BME280;44744;51.894;5.080;2023-01-13T04:25:22;100388.63;;;7.57;76.44
58967;BME280;44744;51.894;5.080;2023-01-13T04:26:22;100383.53;;;7.57;76.41
58967;BME280;44744;51.894;5.080;2023-01-13T04:27:22;100381.27;;;7.56;76.42
58967;BME280;44744;51.894;5.080;2023-01-13T04:28:22;100374.13;;;7.55;76.14
58967;BME280;44744;51.894;5.080;2023-01-13T04:29:22;100380.98;;;7.55;76.25
58967;BME280;44744;51.894;5.080;2023-01-13T04:30:22;100381.95;;;7.53;76.14
58967;BME280;44744;51.894;5.080;2023-01-13T04:31:23;100380.70;;;7.54;75.63
58967;BME280;44744;51.894;5.080;2023-01-13T04:32:23;100381.10;;;7.52;75.67
58967;BME280;44744;51.894;5.080;2023-01-13T04:33:23;100384.66;;;7.52;75.79
58967;BME280;44744;51.894;5.080;2023-01-13T04:34:23;100377.71;;;7.49;75.81
58967;BME280;44744;51.894;5.080;2023-01-13T04:35:23;100376.00;;;7.48;75.83
58967;BME280;44744;51.894;5.080;2023-01-13T04:36:23;100374.48;;;7.48;75.87
58967;BME280;44744;51.894;5.080;2023-01-13T04:37:24;100370.46;;;7.47;75.76
58967;BME280;44744;51.894;5.080;2023-01-13T04:38:24;100369.96;;;7.46;75.87
58967;BME280;44744;51.894;5.080;2023-01-13T04:39:24;100368.75;;;7.46;75.96
58967;BME280;44744;51.894;5.080;2023-01-13T04:40:24;100368.42;;;7.45;75.92
58967;BME280;44744;51.894;5.080;2023-01-13T04:41:24;100363.52;;;7.45;75.95
58967;BME280;44744;51.894;5.080;2023-01-13T04:42:24;100364.61;;;7.44;76.21
58967;BME280;44744;51.894;5.080;2023-01-13T04:43:25;100363.94;;;7.44;76.46
58967;BME280;44744;51.894;5.080;2023-01-13T04:44:25;100366.89;;;7.44;76.48
58967;BME280;44744;51.894;5.080;2023-01-13T04:45:26;100366.36;;;7.44;76.65
58967;BME280;44744;51.894;5.080;2023-01-13T04:46:26;100366.69;;;7.45;76.73
58967;BME280;44744;51.894;5.080;2023-01-13T04:47:26;100374.29;;;7.44;76.81
58967;BME280;44744;51.894;5.080;2023-01-13T04:48:26;100373.40;;;7.45;76.96
58967;BME280;44744;51.894;5.080;2023-01-13T04:49:26;100380.27;;;7.44;76.92
58967;BME280;44744;51.894;5.080;2023-01-13T04:50:26;100379.92;;;7.44;76.94
58967;BME280;44744;51.894;5.080;2023-01-13T04:51:27;100383.25;;;7.44;76.98
58967;BME280;44744;51.894;5.080;2023-01-13T04:52:27;100382.52;;;7.45;77.06
58967;BME280;44744;51.894;5.080;2023-01-13T04:53:27;100380.09;;;7.44;77.34
58967;BME280;44744;51.894;5.080;2023-01-13T04:54:27;100380.23;;;7.45;77.33
58967;BME280;44744;51.894;5.080;2023-01-13T04:55:27;100384.08;;;7.46;77.36
58967;BME280;44744;51.894;5.080;2023-01-13T04:56:27;100379.80;;;7.46;77.55
58967;BME280;44744;51.894;5.080;2023-01-13T04:57:28;100377.14;;;7.47;77.66
58967;BME280;44744;51.894;5.080;2023-01-13T04:58:28;100378.31;;;7.48;77.90
58967;BME280;44744;51.894;5.080;2023-01-13T04:59:28;100375.84;;;7.48;77.92
58967;BME280;44744;51.894;5.080;2023-01-13T05:00:28;100383.02;;;7.49;77.96
58967;BME280;44744;51.894;5.080;2023-01-13T05:01:28;100378.27;;;7.49;78.07
58967;BME280;44744;51.894;5.080;2023-01-13T05:02:28;100379.49;;;7.49;78.20
58967;BME280;44744;51.894;5.080;2023-01-13T05:03:29;100377.89;;;7.49;78.25
58967;BME280;44744;51.894;5.080;2023-01-13T05:04:29;100384.38;;;7.50;78.35
58967;BME280;44744;51.894;5.080;2023-01-13T05:05:29;100382.13;;;7.49;78.47
58967;BME280;44744;51.894;5.080;2023-01-13T05:06:30;100382.84;;;7.49;78.47
58967;BME280;44744;51.894;5.080;2023-01-13T05:07:30;100387.91;;;7.50;78.50
58967;BME280;44744;51.894;5.080;2023-01-13T05:08:30;100386.73;;;7.49;78.65
58967;BME280;44744;51.894;5.080;2023-01-13T05:09:30;100389.86;;;7.49;78.78
58967;BME280;44744;51.894;5.080;2023-01-13T05:10:30;100392.36;;;7.49;78.70
58967;BME280;44744;51.894;5.080;2023-01-13T05:11:30;100393.40;;;7.49;78.82
58967;BME280;44744;51.894;5.080;2023-01-13T05:12:31;100397.44;;;7.49;78.88
58967;BME280;44744;51.894;5.080;2023-01-13T05:13:31;100391.12;;;7.49;78.88
58967;BME280;44744;51.894;5.080;2023-01-13T05:14:31;100399.23;;;7.48;78.98
58967;BME280;44744;51.894;5.080;2023-01-13T05:15:31;100396.00;;;7.50;79.08
58967;BME280;44744;51.894;5.080;2023-01-13T05:16:31;100398.82;;;7.49;79.21
58967;BME280;44744;51.894;5.080;2023-01-13T05:17:32;100402.33;;;7.50;79.17
58967;BME280;44744;51.894;5.080;2023-01-13T05:18:32;100397.73;;;7.50;79.19
58967;BME280;44744;51.894;5.080;2023-01-13T05:19:33;100395.70;;;7.52;79.22
58967;BME280;44744;51.894;5.080;2023-01-13T05:20:33;100397.27;;;7.53;79.16
58967;BME280;44744;51.894;5.080;2023-01-13T05:21:33;100396.91;;;7.53;79.30
58967;BME280;44744;51.894;5.080;2023-01-13T05:22:34;100395.32;;;7.53;79.28
58967;BME280;44744;51.894;5.080;2023-01-13T05:23:34;100392.62;;;7.54;79.42
58967;BME280;44744;51.894;5.080;2023-01-13T05:24:34;100395.08;;;7.55;79.41
58967;BME280;44744;51.894;5.080;2023-01-13T05:25:36;100399.02;;;7.57;79.36
58967;BME280;44744;51.894;5.080;2023-01-13T05:26:37;100394.45;;;7.56;79.26
58967;BME280;44744;51.894;5.080;2023-01-13T05:27:37;100394.61;;;7.57;79.44
58967;BME280;44744;51.894;5.080;2023-01-13T05:28:37;100392.95;;;7.58;79.29
58967;BME280;44744;51.894;5.080;2023-01-13T05:29:37;100395.59;;;7.58;79.29
58967;BME280;44744;51.894;5.080;2023-01-13T05:30:38;100396.17;;;7.57;79.35
58967;BME280;44744;51.894;5.080;2023-01-13T05:31:39;100396.55;;;7.57;79.13
58967;BME280;44744;51.894;5.080;2023-01-13T05:32:39;100394.26;;;7.57;79.06
58967;BME280;44744;51.894;5.080;2023-01-13T05:33:39;100391.14;;;7.56;79.04
58967;BME280;44744;51.894;5.080;2023-01-13T05:34:39;100386.55;;;7.56;79.09
58967;BME280;44744;51.894;5.080;2023-01-13T05:35:40;100386.98;;;7.54;79.07
58967;BME280;44744;51.894;5.080;2023-01-13T05:36:40;100390.59;;;7.53;78.97
58967;BME280;44744;51.894;5.080;2023-01-13T05:37:43;100387.86;;;7.51;79.03
58967;BME280;44744;51.894;5.080;2023-01-13T05:38:43;100392.64;;;7.50;79.04
58967;BME280;44744;51.894;5.080;2023-01-13T05:39:46;100391.14;;;7.48;79.03
58967;BME280;44744;51.894;5.080;2023-01-13T05:40:46;100395.94;;;7.48;78.86
58967;BME280;44744;51.894;5.080;2023-01-13T05:41:46;100395.30;;;7.46;78.97
58967;BME280;44744;51.894;5.080;2023-01-13T05:42:46;100396.96;;;7.45;78.93
58967;BME280;44744;51.894;5.080;2023-01-13T05:43:46;100400.93;;;7.43;78.80
58967;BME280;44744;51.894;5.080;2023-01-13T05:44:47;100399.04;;;7.42;78.76
58967;BME280;44744;51.894;5.080;2023-01-13T05:45:48;100397.52;;;7.40;78.89
58967;BME280;44744;51.894;5.080;2023-01-13T05:46:48;100396.71;;;7.39;79.03
58967;BME280;44744;51.894;5.080;2023-01-13T05:47:49;100390.02;;;7.39;79.01
58967;BME280;44744;51.894;5.080;2023-01-13T05:48:49;100394.65;;;7.38;78.94
58967;BME280;44744;51.894;5.080;2023-01-13T05:49:49;100398.89;;;7.38;79.04
58967;BME280;44744;51.894;5.080;2023-01-13T05:50:49;100396.98;;;7.37;78.93
58967;BME280;44744;51.894;5.080;2023-01-13T05:51:52;100398.40;;;7.37;79.20
58967;BME280;44744;51.894;5.080;2023-01-13T05:52:52;100401.54;;;7.37;79.30
58967;BME280;44744;51.894;5.080;2023-01-13T05:53:52;100397.15;;;7.37;79.27
58967;BME280;44744;51.894;5.080;2023-01-13T05:54:53;100400.33;;;7.37;79.25
58967;BME280;44744;51.894;5.080;2023-01-13T05:55:53;100403.07;;;7.39;79.29
58967;BME280;44744;51.894;5.080;2023-01-13T05:56:53;100400.61;;;7.39;79.31
58967;BME280;44744;51.894;5.080;2023-01-13T05:57:53;100398.29;;;7.39;79.46
58967;BME280;44744;51.894;5.080;2023-01-13T05:58:53;100398.05;;;7.40;79.50
58967;BME280;44744;51.894;5.080;2023-01-13T05:59:54;100395.07;;;7.40;79.48